Time;durP1;ratioP1;P1;durP2;ratioP2;P2;SDS_P1;SDS_P2;PMS_P1;PMS_P2;Temp;Humidity;BMP_temperature;BMP_pressure;BME280_temperature;BME280_humidity;BME280_pressure;Samples;Min_cycle;Max_cycle;Signal;HPM_P1;HPM_P2
2024/01/29 00:00:16;;;;;;;0.40;0.40;;;4.60;99.90;;;;;;5002869;28;20183;-96
2024/01/29 00:02:44;;;;;;;0.50;0.50;;;4.60;99.90;;;;;;5009857;28;20197;-96
2024/01/29 00:05:09;;;;;;;0.30;0.30;;;4.60;99.90;;;;;;5003319;28;20213;-96
2024/01/29 00:07:35;;;;;;;0.60;0.60;;;4.60;99.90;;;;;;5002785;28;20277;-96
2024/01/29 00:10:00;;;;;;;0.70;0.70;;;4.60;99.90;;;;;;5016821;28;20209;-95
2024/01/29 00:12:26;;;;;;;;;;;4.60;99.90;;;;;;5012211;28;20213;-96
2024/01/29 00:14:52;;;;;;;;;;;4.60;99.90;;;;;;5004361;28;20611;-95
2024/01/29 00:17:17;;;;;;;0.40;0.40;;;4.60;99.90;;;;;;5011224;28;20428;-95
2024/01/29 00:19:46;;;;;;;;;;;4.70;99.90;;;;;;5010289;28;20680;-96
2024/01/29 00:22:12;;;;;;;;;;;4.70;99.90;;;;;;5006296;28;20196;-96
2024/01/29 00:24:37;;;;;;;0.50;0.50;;;4.70;99.90;;;;;;5009654;28;20239;-96
2024/01/29 00:27:06;;;;;;;;;;;4.80;99.90;;;;;;5003028;28;20183;-96
2024/01/29 00:29:33;;;;;;;0.40;0.40;;;4.70;99.90;;;;;;5009593;28;20178;-96
2024/01/29 00:31:58;;;;;;;0.60;0.60;;;4.80;99.90;;;;;;4998687;28;20484;-95
2024/01/29 00:34:24;;;;;;;0.40;0.40;;;4.80;99.90;;;;;;5011104;28;20449;-96
2024/01/29 00:36:50;;;;;;;0.40;0.40;;;4.80;99.90;;;;;;5016704;28;20174;-96
2024/01/29 00:39:15;;;;;;;0.30;0.30;;;4.80;99.90;;;;;;5006070;28;20170;-96
2024/01/29 00:41:41;;;;;;;0.55;0.55;;;4.70;99.90;;;;;;5015469;28;20322;-96
2024/01/29 00:44:06;;;;;;;0.65;0.65;;;4.70;99.90;;;;;;5014970;28;20207;-93
2024/01/29 00:46:32;;;;;;;;;;;4.70;99.90;;;;;;5014561;28;20627;-94
2024/01/29 00:48:57;;;;;;;0.60;0.60;;;4.70;99.90;;;;;;5006311;28;20183;-93
2024/01/29 00:51:23;;;;;;;0.60;0.60;;;4.70;99.90;;;;;;5000309;28;20192;-95
2024/01/29 00:53:49;;;;;;;0.40;0.40;;;4.70;99.90;;;;;;5007829;28;21056;-96
2024/01/29 00:56:14;;;;;;;0.50;0.50;;;4.60;99.90;;;;;;5005355;28;20665;-95
2024/01/29 00:58:43;;;;;;;;;;;4.70;99.90;;;;;;5002936;28;20268;-96
2024/01/29 01:01:09;;;;;;;;;;;4.60;99.90;;;;;;5003752;28;20202;-95
2024/01/29 01:03:34;;;;;;;;;;;4.70;99.90;;;;;;5003538;28;20216;-96
2024/01/29 01:05:59;;;;;;;;;;;4.70;99.90;;;;;;5003572;28;20206;-96
2024/01/29 01:08:25;;;;;;;;;;;4.60;99.90;;;;;;5004896;28;20190;-95
2024/01/29 01:10:50;;;;;;;;;;;4.60;99.90;;;;;;5002268;28;20647;-95
2024/01/29 01:13:16;;;;;;;;;;;4.60;99.90;;;;;;5001996;28;20232;-95
2024/01/29 01:15:41;;;;;;;;;;;4.60;99.90;;;;;;5002596;28;20204;-94
2024/01/29 01:18:07;;;;;;;0.40;0.40;;;4.60;99.90;;;;;;5003860;28;20193;-95
2024/01/29 01:20:32;;;;;;;0.50;0.50;;;4.60;99.90;;;;;;5004143;28;20188;-95
2024/01/29 01:23:00;;;;;;;0.40;0.40;;;4.60;99.90;;;;;;5004418;28;20511;-95
2024/01/29 01:25:25;;;;;;;0.80;0.80;;;4.60;99.90;;;;;;5000700;28;20166;-96
2024/01/29 01:27:53;;;;;;;;;;;4.60;99.90;;;;;;5003903;28;20285;-96
2024/01/29 01:30:20;;;;;;;;;;;4.60;99.90;;;;;;5003286;28;20040;-96
2024/01/29 01:32:45;;;;;;;;;;;4.50;99.90;;;;;;5002731;28;20484;-95
2024/01/29 01:35:11;;;;;;;;;;;4.50;99.90;;;;;;5004588;28;20275;-96
2024/01/29 01:37:36;;;;;;;;;;;4.50;99.90;;;;;;5004828;28;20214;-95
2024/01/29 01:40:04;;;;;;;;;;;4.50;99.90;;;;;;5003720;28;20174;-95
2024/01/29 01:42:30;;;;;;;;;;;4.40;99.90;;;;;;5007400;28;20165;-96
2024/01/29 01:44:55;;;;;;;;;;;4.40;99.90;;;;;;5004934;28;20246;-96
2024/01/29 01:47:21;;;;;;;;;;;4.40;99.90;;;;;;5001807;28;20122;-94
2024/01/29 01:49:47;;;;;;;;;;;4.40;99.90;;;;;;5004154;28;19909;-95
2024/01/29 01:52:12;;;;;;;;;;;4.30;99.90;;;;;;5008078;28;19913;-95
2024/01/29 01:54:39;;;;;;;;;;;4.40;99.90;;;;;;5007522;28;20373;-95
2024/01/29 01:57:04;;;;;;;;;;;4.40;99.90;;;;;;5006687;28;20158;-96
2024/01/29 01:59:33;;;;;;;;;;;4.40;99.90;;;;;;5006678;28;20220;-95
2024/01/29 02:01:58;;;;;;;;;;;4.40;99.90;;;;;;5008224;28;20133;-95
2024/01/29 02:04:24;;;;;;;;;;;4.40;99.90;;;;;;5007978;28;20125;-95
2024/01/29 02:06:51;;;;;;;;;;;4.40;99.90;;;;;;5006627;28;20425;-95
2024/01/29 02:09:17;;;;;;;;;;;4.30;99.90;;;;;;5008347;28;19910;-96
2024/01/29 02:11:43;;;;;;;;;;;4.30;99.90;;;;;;5008219;28;20010;-96
2024/01/29 02:14:08;;;;;;;;;;;4.30;99.90;;;;;;5007396;28;20235;-95
2024/01/29 02:16:33;;;;;;;;;;;4.20;99.90;;;;;;5007859;28;19913;-94
2024/01/29 02:18:59;;;;;;;;;;;4.20;99.90;;;;;;5007342;28;19962;-96
2024/01/29 02:21:24;;;;;;;;;;;4.20;99.90;;;;;;5005656;28;19955;-95
2024/01/29 02:23:50;;;;;;;;;;;4.20;99.90;;;;;;5005791;28;19913;-96
2024/01/29 02:26:15;;;;;;;;;;;4.20;99.90;;;;;;5004981;28;20563;-95
2024/01/29 02:28:41;;;;;;;;;;;4.20;99.90;;;;;;5007400;28;20009;-95
2024/01/29 02:31:06;;;;;;;;;;;4.20;99.90;;;;;;5006953;28;20325;-95
2024/01/29 02:33:32;;;;;;;;;;;4.20;99.90;;;;;;5004672;28;19917;-96
2024/01/29 02:35:57;;;;;;;;;;;4.20;99.90;;;;;;5007468;28;20013;-95
2024/01/29 02:38:23;;;;;;;;;;;4.10;99.90;;;;;;5004554;28;19909;-95
2024/01/29 02:40:48;;;;;;;;;;;4.20;99.90;;;;;;5006976;28;20353;-95
2024/01/29 02:43:14;;;;;;;;;;;4.20;99.90;;;;;;5004906;28;20064;-95
2024/01/29 02:45:40;;;;;;;;;;;4.10;99.90;;;;;;5006524;28;19915;-94
2024/01/29 02:48:05;;;;;;;;;;;4.10;99.90;;;;;;5006992;28;19909;-96
2024/01/29 02:50:31;;;;;;;;;;;4.10;99.90;;;;;;5005986;28;19944;-95
2024/01/29 02:52:57;;;;;;;;;;;4.10;99.90;;;;;;5004260;28;21432;-95
2024/01/29 02:55:22;;;;;;;;;;;4.20;99.90;;;;;;5007749;28;19952;-96
2024/01/29 02:57:47;;;;;;;;;;;4.20;99.90;;;;;;5007206;28;20040;-95
2024/01/29 03:00:13;;;;;;;;;;;4.20;99.90;;;;;;5010625;28;19915;-95
2024/01/29 03:02:38;;;;;;;;;;;4.20;99.90;;;;;;5004087;28;19910;-94
2024/01/29 03:05:04;;;;;;;;;;;4.20;99.90;;;;;;5006604;28;20353;-95
2024/01/29 03:07:30;;;;;;;;;;;4.30;99.90;;;;;;5009231;28;19913;-95
2024/01/29 03:09:55;;;;;;;;;;;4.30;99.90;;;;;;5007621;28;19959;-95
2024/01/29 03:12:21;;;;;;;;;;;4.20;99.90;;;;;;5011173;28;19913;-95
2024/01/29 03:14:46;;;;;;;;;;;4.20;99.90;;;;;;5003809;28;20341;-95
2024/01/29 03:17:11;;;;;;;;;;;4.10;99.90;;;;;;5003596;28;19920;-95
2024/01/29 03:19:38;;;;;;;;;;;4.20;99.90;;;;;;5004013;28;19979;-95
2024/01/29 03:22:04;;;;;;;;;;;4.20;99.90;;;;;;5002023;28;19913;-96
2024/01/29 03:24:29;;;;;;;;;;;4.20;99.90;;;;;;5006277;28;20405;-95
2024/01/29 03:26:54;;;;;;;;;;;4.20;99.90;;;;;;5005780;28;20369;-96
2024/01/29 03:29:20;;;;;;;;;;;4.20;99.90;;;;;;5003450;28;19920;-96
2024/01/29 03:31:45;;;;;;;;;;;4.20;99.90;;;;;;5007711;28;19920;-95
2024/01/29 03:34:11;;;;;;;;;;;4.10;99.90;;;;;;5006862;28;19933;-96
2024/01/29 03:36:36;;;;;;;;;;;4.10;99.90;;;;;;5008137;28;19963;-96
2024/01/29 03:39:03;;;;;;;;;;;4.20;99.90;;;;;;5004193;28;19917;-96
2024/01/29 03:41:29;;;;;;;;;;;4.10;99.90;;;;;;5004810;28;19921;-96
2024/01/29 03:43:54;;;;;;;;;;;4.10;99.90;;;;;;5024027;28;20020;-96
2024/01/29 03:46:20;;;;;;;;;;;4.10;99.90;;;;;;5007792;28;19965;-96
2024/01/29 03:48:45;;;;;;;;;;;4.00;99.90;;;;;;4999426;28;19918;-95
2024/01/29 03:51:11;;;;;;;;;;;4.10;99.90;;;;;;5003580;28;19967;-95
2024/01/29 03:53:36;;;;;;;;;;;4.10;99.90;;;;;;5003958;28;19967;-96
2024/01/29 03:56:02;;;;;;;;;;;4.10;99.90;;;;;;5009380;28;19971;-96
2024/01/29 03:58:27;;;;;;;;;;;4.00;99.90;;;;;;5011867;28;20404;-96
2024/01/29 04:00:53;;;;;;;;;;;4.00;99.90;;;;;;5004762;28;20400;-95
2024/01/29 04:03:18;;;;;;;;;;;4.00;99.90;;;;;;5013186;28;20026;-96
2024/01/29 04:05:47;;;;;;;;;;;4.00;99.90;;;;;;5006273;28;19915;-96
2024/01/29 04:08:21;;;;;;;;;;;4.00;99.90;;;;;;5009920;28;19909;-96
2024/01/29 04:10:47;;;;;;;;;;;4.00;99.90;;;;;;5011048;28;19915;-96
2024/01/29 04:13:12;;;;;;;;;;;4.00;99.90;;;;;;5007263;28;19917;-95
2024/01/29 04:15:37;;;;;;;;;;;4.00;99.90;;;;;;5006110;28;19923;-96
2024/01/29 04:18:03;;;;;;;;;;;4.00;99.90;;;;;;5008272;28;19936;-96
2024/01/29 04:20:29;;;;;;;;;;;3.90;99.90;;;;;;5008614;28;20342;-96
2024/01/29 04:22:54;;;;;;;;;;;4.00;99.90;;;;;;5006697;28;19909;-95
2024/01/29 04:25:20;;;;;;;;;;;4.00;99.90;;;;;;5007428;28;20020;-96
2024/01/29 04:27:46;;;;;;;;;;;4.00;99.90;;;;;;5008598;28;20358;-96
2024/01/29 04:30:12;;;;;;;;;;;3.90;99.90;;;;;;5007724;28;19919;-96
2024/01/29 04:32:38;;;;;;;;;;;3.90;99.90;;;;;;5008130;28;19917;-96
2024/01/29 04:35:03;;;;;;;;;;;3.90;99.90;;;;;;5003411;28;19956;-96
2024/01/29 04:37:29;;;;;;;;;;;3.80;99.90;;;;;;5006186;28;19909;-95
2024/01/29 04:39:54;;;;;;;;;;;3.90;99.90;;;;;;5002084;28;19959;-96
2024/01/29 04:42:20;;;;;;;;;;;3.90;99.90;;;;;;5003999;28;20296;-95
2024/01/29 04:44:45;;;;;;;;;;;3.80;99.90;;;;;;5007354;28;19991;-96
2024/01/29 04:47:11;;;;;;;;;;;3.80;99.90;;;;;;5007065;28;19909;-96
2024/01/29 04:49:36;;;;;;;;;;;3.80;99.90;;;;;;5009298;28;19948;-96
2024/01/29 04:52:02;;;;;;;;;;;3.80;99.90;;;;;;5008370;28;20399;-96
2024/01/29 04:54:27;;;;;;;;;;;3.70;99.90;;;;;;5003260;28;20017;-96
2024/01/29 04:56:53;;;;;;;;;;;3.80;99.90;;;;;;5006587;28;19916;-96
2024/01/29 04:59:18;;;;;;;;;;;3.80;99.90;;;;;;5010142;28;20424;-96
2024/01/29 05:01:44;;;;;;;;;;;3.60;99.90;;;;;;5004798;28;19917;-96
2024/01/29 05:04:10;;;;;;;;;;;3.80;99.90;;;;;;5007651;28;20379;-96
2024/01/29 05:06:35;;;;;;;;;;;3.80;99.90;;;;;;5007162;28;19924;-96
2024/01/29 05:09:02;;;;;;;;;;;3.80;99.90;;;;;;5005563;28;19910;-96
2024/01/29 05:11:27;;;;;;;;;;;3.70;99.90;;;;;;5008865;28;19920;-95
2024/01/29 05:13:55;;;;;;;;;;;3.80;99.90;;;;;;5005267;28;19921;-96
2024/01/29 05:16:21;;;;;;;;;;;3.80;99.90;;;;;;5003772;28;19945;-95
2024/01/29 05:18:48;;;;;;;;;;;3.80;99.90;;;;;;5010091;28;19913;-96
2024/01/29 05:21:13;;;;;;;;;;;3.80;99.90;;;;;;5006179;28;19940;-96
2024/01/29 05:23:39;;;;;;;;;;;3.70;99.90;;;;;;5001312;28;19957;-96
2024/01/29 05:26:04;;;;;;;;;;;3.70;99.90;;;;;;5008492;28;19893;-96
2024/01/29 05:28:30;;;;;;;;;;;3.70;99.90;;;;;;5009348;28;19963;-96
2024/01/29 05:30:56;;;;;;;;;;;3.70;99.90;;;;;;5005162;28;20004;-95
2024/01/29 05:33:21;;;;;;;;;;;3.80;99.90;;;;;;5006800;28;20336;-96
2024/01/29 05:35:47;;;;;;;;;;;3.80;99.90;;;;;;5009349;28;19913;-96
2024/01/29 05:38:12;;;;;;;;;;;3.80;99.90;;;;;;5008589;28;20338;-96
2024/01/29 05:40:37;;;;;;;;;;;3.70;99.90;;;;;;5004664;28;19920;-96
2024/01/29 05:43:03;;;;;;;;;;;3.60;99.90;;;;;;5007343;28;19912;-95
2024/01/29 05:45:28;;;;;;;;;;;3.70;99.90;;;;;;5008887;28;19917;-96
2024/01/29 05:47:54;;;;;;;;;;;3.60;99.90;;;;;;5005566;28;20354;-96
2024/01/29 05:50:20;;;;;;;;;;;3.60;99.90;;;;;;5009838;28;19910;-96
2024/01/29 05:52:45;;;;;;;;;;;3.60;99.90;;;;;;5019647;28;19909;-96
2024/01/29 05:55:11;;;;;;;;;;;3.60;99.90;;;;;;5000351;28;19922;-96
2024/01/29 05:57:36;;;;;;;;;;;3.60;99.90;;;;;;5006190;28;20004;-95
2024/01/29 06:00:03;;;;;;;;;;;3.50;99.90;;;;;;5009285;28;20320;-96
2024/01/29 06:02:28;;;;;;;;;;;3.60;99.90;;;;;;5013435;28;20010;-96
2024/01/29 06:04:54;;;;;;;;;;;3.70;99.90;;;;;;5001836;28;19953;-95
2024/01/29 06:07:19;;;;;;;;;;;3.60;99.90;;;;;;5008615;28;19925;-94
2024/01/29 06:09:44;;;;;;;;;;;3.60;99.90;;;;;;5015301;28;19935;-95
2024/01/29 06:12:10;;;;;;;;;;;3.60;99.90;;;;;;5006015;28;19914;-94
2024/01/29 06:14:36;;;;;;;;;;;3.60;99.90;;;;;;5016761;28;19928;-96
2024/01/29 06:17:04;;;;;;;;;;;3.60;99.90;;;;;;5012942;28;19909;-96
2024/01/29 06:19:31;;;;;;;;;;;3.60;99.90;;;;;;5016065;28;19913;-96
2024/01/29 06:21:57;;;;;;;;;;;3.70;99.90;;;;;;5024036;28;19971;-96
2024/01/29 06:24:22;;;;;;;;;;;3.60;99.90;;;;;;5013574;28;19999;-96
2024/01/29 06:26:48;;;;;;;;;;;3.60;99.90;;;;;;5029212;28;19920;-96
2024/01/29 06:29:13;;;;;;;;;;;3.50;99.90;;;;;;5027568;28;19908;-96
2024/01/29 06:31:50;;;;;;;;;;;3.50;99.90;;;;;;5025738;28;20288;-96
2024/01/29 06:34:17;;;;;;;;;;;3.50;99.90;;;;;;5033596;28;19901;-96
2024/01/29 06:36:43;;;;;;;;;;;3.50;99.90;;;;;;5013651;28;19915;-96
2024/01/29 06:39:08;;;;;;;;;;;3.50;99.90;;;;;;5024046;28;19913;-95
2024/01/29 06:41:34;;;;;;;;;;;3.50;99.90;;;;;;5015461;28;19909;-93
2024/01/29 06:43:59;;;;;;;;;;;3.40;99.90;;;;;;5012782;28;19909;-94
2024/01/29 06:46:25;;;;;;;;;;;3.50;99.90;;;;;;5012744;28;19963;-96
2024/01/29 06:48:50;;;;;;;;;;;3.50;99.90;;;;;;5019370;28;19905;-95
2024/01/29 06:51:16;;;;;;;;;;;3.50;99.90;;;;;;5011595;28;19909;-92
2024/01/29 06:53:41;;;;;;;;;;;3.40;99.90;;;;;;5018021;28;20384;-94
2024/01/29 06:56:07;;;;;;;;;;;3.40;99.90;;;;;;5004967;28;19954;-95
2024/01/29 06:58:36;;;;;;;;;;;3.40;99.90;;;;;;5003951;28;19917;-95
2024/01/29 07:01:01;;;;;;;;;;;3.40;99.90;;;;;;5010082;28;19935;-96
2024/01/29 07:03:27;;;;;;;;;;;3.30;99.90;;;;;;5012967;28;19909;-96
2024/01/29 07:05:53;;;;;;;;;;;3.40;99.90;;;;;;5009266;28;19955;-96
2024/01/29 07:08:19;;;;;;;;;;;3.40;99.90;;;;;;5006982;28;19917;-93
2024/01/29 07:10:44;;;;;;;;;;;3.40;99.90;;;;;;5012828;28;19963;-94
2024/01/29 07:13:10;;;;;;;;;;;3.40;99.90;;;;;;5020857;28;19917;-96
2024/01/29 07:15:42;;;;;;;;;;;3.40;99.90;;;;;;5025214;28;19985;-96
2024/01/29 07:18:08;;;;;;;;;;;3.40;99.90;;;;;;5009401;28;19921;-96
2024/01/29 07:20:38;;;;;;;;;;;3.40;99.90;;;;;;5003384;28;19959;-96
2024/01/29 07:23:08;;;;;;;;;;;3.40;99.90;;;;;;5013712;28;19917;-95
2024/01/29 07:25:34;;;;;;;;;;;3.40;99.90;;;;;;5007304;28;20028;-95
2024/01/29 07:28:02;;;;;;;;;;;3.40;99.90;;;;;;5012495;28;19939;-95
2024/01/29 07:30:27;;;;;;;;;;;3.40;99.90;;;;;;5013697;28;19944;-96
2024/01/29 07:32:53;;;;;;;;;;;3.40;99.90;;;;;;5017129;28;19939;-95
2024/01/29 07:35:18;;;;;;;;;;;3.30;99.90;;;;;;5009189;28;19924;-96
2024/01/29 07:37:44;;;;;;;;;;;3.50;99.90;;;;;;5016242;28;19947;-94
2024/01/29 07:40:09;;;;;;;;;;;3.50;99.90;;;;;;5014799;28;20424;-95
2024/01/29 07:42:36;;;;;;;;;;;3.60;99.90;;;;;;5002595;28;19917;-95
2024/01/29 07:45:01;;;;;;;;;;;3.50;99.90;;;;;;5007237;28;19959;-95
2024/01/29 07:47:27;;;;;;;;;;;3.50;99.90;;;;;;5012369;28;19909;-94
2024/01/29 07:49:52;;;;;;;;;;;3.50;99.90;;;;;;5015090;28;20353;-93
2024/01/29 07:52:18;;;;;;;;;;;3.50;99.90;;;;;;5000182;28;19913;-95
2024/01/29 07:54:43;;;;;;;;;;;3.50;99.90;;;;;;5011628;28;19960;-94
2024/01/29 07:57:09;;;;;;;;;;;3.50;99.90;;;;;;5007977;28;19913;-95
2024/01/29 07:59:34;;;;;;;;;;;3.50;99.90;;;;;;5005631;28;19910;-95
2024/01/29 08:02:00;;;;;;;;;;;3.60;99.90;;;;;;5031692;28;19909;-95
2024/01/29 08:04:25;;;;;;;;;;;3.60;99.90;;;;;;5014620;28;20377;-95
2024/01/29 08:06:51;;;;;;;;;;;3.60;99.90;;;;;;5016148;28;19905;-94
2024/01/29 08:09:27;;;;;;;;;;;3.60;99.90;;;;;;5112776;27;19912;-94
2024/01/29 08:11:52;;;;;;;;;;;3.70;99.90;;;;;;5113238;28;20022;-94
2024/01/29 08:14:18;;;;;;;;;;;3.70;99.90;;;;;;5110905;28;19916;-93
2024/01/29 08:16:43;;;;;;;;;;;3.70;99.90;;;;;;5111946;28;19912;-95
2024/01/29 08:19:09;;;;;;;;;;;3.70;99.90;;;;;;5111581;28;19916;-94
2024/01/29 08:21:35;;;;;;;;;;;3.70;99.90;;;;;;5109817;28;20372;-93
2024/01/29 08:24:02;;;;;;;;;;;3.80;99.90;;;;;;5111308;28;20364;-94
2024/01/29 08:26:28;;;;;;;;;;;3.80;99.90;;;;;;5111063;28;19912;-94
2024/01/29 08:28:53;;;;;;;;;;;3.80;99.90;;;;;;5118074;28;19951;-94
2024/01/29 08:31:19;;;;;;;;;;;3.80;99.90;;;;;;5099912;28;19908;-95
2024/01/29 08:33:44;;;;;;;;;;;3.90;99.90;;;;;;5103773;28;19916;-94
2024/01/29 08:36:10;;;;;;;;;;;4.00;99.90;;;;;;5089904;28;19920;-93
2024/01/29 08:38:35;;;;;;;;;;;4.10;99.90;;;;;;5097931;28;19927;-94
2024/01/29 08:41:01;;;;;;;;;;;4.20;99.90;;;;;;5105926;28;19951;-93
2024/01/29 08:43:26;;;;;;;;;;;4.30;99.90;;;;;;5101822;28;19919;-91
2024/01/29 08:45:52;;;;;;;;;;;4.50;99.90;;;;;;5091893;28;20046;-93
2024/01/29 08:48:17;;;;;;;;;;;4.50;99.90;;;;;;5101400;28;19923;-93
2024/01/29 08:50:43;;;;;;;;;;;4.60;99.90;;;;;;5109564;28;20023;-92
2024/01/29 08:53:08;;;;;;;;;;;4.70;99.90;;;;;;5098389;28;19944;-95
2024/01/29 08:55:34;;;;;;;;;;;4.80;99.90;;;;;;5110698;28;19919;-94
2024/01/29 08:57:59;;;;;;;;;;;5.00;99.90;;;;;;5110424;28;20344;-93
2024/01/29 09:00:25;;;;;;;;;;;5.00;99.90;;;;;;5090933;28;19930;-94
2024/01/29 09:02:50;;;;;;;;;;;5.20;99.90;;;;;;5108703;28;20532;-94
2024/01/29 09:05:16;;;;;;;;;;;5.30;99.90;;;;;;5104420;28;20632;-93
2024/01/29 09:07:41;;;;;;;;;;;5.50;99.90;;;;;;5110093;28;20364;-93
2024/01/29 09:10:07;;;;;;;;;;;5.70;99.90;;;;;;5117300;28;20379;-95
2024/01/29 09:12:33;;;;;;;;;;;5.60;99.90;;;;;;5114670;28;19928;-95
2024/01/29 09:14:58;;;;;;;;;;;5.70;99.90;;;;;;5106773;27;19989;-95
2024/01/29 09:17:24;;;;;;;;;;;5.80;99.90;;;;;;5107367;28;19920;-95
2024/01/29 09:19:51;;;;;;;;;;;5.80;99.90;;;;;;5090218;28;19912;-95
2024/01/29 09:22:17;;;;;;;;;;;5.90;99.90;;;;;;5093137;28;20005;-95
2024/01/29 09:24:43;;;;;;;;;;;6.10;99.90;;;;;;5098374;28;20004;-96
2024/01/29 09:27:08;;;;;;;;;;;6.20;99.90;;;;;;5099327;28;19920;-95
2024/01/29 09:29:34;;;;;;;;;;;6.40;99.90;;;;;;5112450;28;19916;-95
2024/01/29 09:31:59;;;;;;;;;;;6.30;99.90;;;;;;5100299;28;19987;-94
2024/01/29 09:34:25;;;;;;;;;;;6.40;99.90;;;;;;5095439;28;20265;-95
2024/01/29 09:36:51;;;;;;;;;;;6.50;99.90;;;;;;5093463;28;20462;-95
2024/01/29 09:39:17;;;;;;;;;;;6.70;99.90;;;;;;5096955;28;19942;-95
2024/01/29 09:41:43;;;;;;;;;;;7.00;99.90;;;;;;5096468;28;20387;-93
2024/01/29 09:44:09;;;;;;;;;;;6.90;99.90;;;;;;5112453;28;19912;-96
2024/01/29 09:46:39;;;;;;;;;;;7.10;99.90;;;;;;5095356;28;20358;-94
2024/01/29 09:49:05;;;;;;;;;;;7.10;99.90;;;;;;5101395;28;19946;-95
2024/01/29 09:51:31;;;;;;;;;;;7.10;99.90;;;;;;5089681;28;19912;-94
2024/01/29 09:53:58;;;;;;;;;;;7.30;99.90;;;;;;5085984;28;20396;-95
2024/01/29 09:56:25;;;;;;;;;;;7.60;99.90;;;;;;5099182;28;20388;-94
2024/01/29 09:58:51;;;;;;;;;;;7.80;99.90;;;;;;5107602;28;19926;-94
2024/01/29 10:01:20;;;;;;;;;;;7.90;99.90;;;;;;5092776;28;19920;-94
2024/01/29 10:03:45;;;;;;;;;;;7.80;99.90;;;;;;5095216;28;19919;-92
2024/01/29 10:06:11;;;;;;;;;;;8.00;99.90;;;;;;5113058;28;19916;-93
2024/01/29 10:08:37;;;;;;;;;;;8.20;99.90;;;;;;5095726;28;19928;-92
2024/01/29 10:11:02;;;;;;;;;;;8.10;99.90;;;;;;5095017;28;19970;-94
2024/01/29 10:13:29;;;;;;;;;;;8.30;99.90;;;;;;5102010;28;20382;-92
2024/01/29 10:15:56;;;;;;;;;;;8.50;99.90;;;;;;5114702;28;19907;-94
2024/01/29 10:18:21;;;;;;;;;;;8.30;99.90;;;;;;5101093;28;19921;-91
2024/01/29 10:20:47;;;;;;;;;;;8.40;99.90;;;;;;5100543;28;20391;-92
2024/01/29 10:23:12;;;;;;;;;;;8.60;99.90;;;;;;5093715;28;19920;-92
2024/01/29 10:25:39;;;;;;;;;;;8.60;99.90;;;;;;5099118;28;19912;-92
2024/01/29 10:28:08;;;;;;;;;;;8.80;99.90;;;;;;5091855;28;20127;-92
2024/01/29 10:30:33;;;;;;;;;;;9.00;99.90;;;;;;5107195;28;19951;-92
2024/01/29 10:32:59;;;;;;;;;;;9.30;99.90;;;;;;5112123;28;19912;-92
2024/01/29 10:35:25;;;;;;;;;;;9.90;99.90;;;;;;5110357;28;19912;-92
2024/01/29 10:37:50;;;;;;;;;;;10.00;99.90;;;;;;5100137;28;20002;-92
2024/01/29 10:40:20;;;;;;;;;;;9.80;99.90;;;;;;5105671;28;19923;-91
2024/01/29 10:42:48;;;;;;;;;;;10.10;99.90;;;;;;5077843;28;19912;-91
2024/01/29 10:45:14;;;;;;;;;;;10.30;99.90;;;;;;5079602;28;19995;-92
2024/01/29 10:47:45;;;;;;;;;;;10.60;99.90;;;;;;5083219;28;19920;-94
2024/01/29 10:50:16;;;;;;;;;;;10.30;99.90;;;;;;5080727;28;19915;-92
2024/01/29 10:52:43;;;;;;;;;;;10.70;99.90;;;;;;5093534;28;19957;-90
2024/01/29 10:55:10;;;;;;;;;;;10.70;99.90;;;;;;5114902;28;19915;-92
2024/01/29 10:57:36;;;;;;;;;;;10.60;99.90;;;;;;5099125;28;20006;-94
2024/01/29 11:00:03;;;;;;;;;;;10.20;99.90;;;;;;5090999;28;20573;-94
2024/01/29 11:02:29;;;;;;;;;;;10.30;99.90;;;;;;5116930;28;19919;-93
2024/01/29 11:04:55;;;;;;;;;;;10.80;99.90;;;;;;5100414;28;19966;-94
2024/01/29 11:07:22;;;;;;;;;;;10.60;99.90;;;;;;5078125;28;19925;-93
2024/01/29 11:09:53;;;;;;;;;;;11.10;99.90;;;;;;5093424;28;20386;-95
2024/01/29 11:12:18;;;;;;;;;;;11.50;99.90;;;;;;5107452;28;19912;-95
2024/01/29 11:14:55;;;;;;;;;;;11.90;99.90;;;;;;5102586;28;19962;-95
2024/01/29 11:17:21;;;;;;;;;;;11.90;99.90;;;;;;5115127;28;19911;-92
2024/01/29 11:19:50;;;;;;;;;;;11.60;99.90;;;;;;5105718;28;20042;-93
2024/01/29 11:22:15;;;;;;;;;;;12.00;99.90;;;;;;5102038;28;19912;-93
2024/01/29 11:24:41;;;;;;;;;;;11.90;99.90;;;;;;5096296;28;20010;-95
2024/01/29 11:27:07;;;;;;;;;;;12.20;99.90;;;;;;5098752;28;19962;-95
2024/01/29 11:29:37;;;;;;;;;;;12.60;99.90;;;;;;5098464;28;19912;-93
2024/01/29 11:32:04;;;;;;;;;;;12.30;99.90;;;;;;5100992;28;19938;-95
2024/01/29 11:34:30;;;;;;;;;;;11.90;99.90;;;;;;5098451;28;19912;-94
2024/01/29 11:36:55;;;;;;;;;;;12.20;99.90;;;;;;5098568;28;19923;-94
2024/01/29 11:39:24;;;;;;;;;;;12.20;99.90;;;;;;5108589;28;19927;-93
2024/01/29 11:41:50;;;;;;;;;;;12.40;99.90;;;;;;5101580;28;19987;-96
2024/01/29 11:44:21;;;;;;;;;;;12.00;99.90;;;;;;5099675;28;20433;-95
2024/01/29 11:46:48;;;;;;;;;;;12.00;99.90;;;;;;5094364;28;19957;-95
2024/01/29 11:49:22;;;;;;;;;;;12.00;99.90;;;;;;5094636;28;20113;-95
2024/01/29 11:51:47;;;;;;;;;;;11.50;99.90;;;;;;5093989;28;19951;-93
2024/01/29 11:54:13;;;;;;;;;;;11.00;99.90;;;;;;5099689;28;20008;-95
2024/01/29 11:56:38;;;;;;;;;;;11.70;99.90;;;;;;5093685;28;19916;-95
2024/01/29 11:59:04;;;;;;;;;;;11.60;99.90;;;;;;5102313;28;19912;-95
2024/01/29 12:01:32;;;;;;;;;;;11.30;99.90;;;;;;5097779;28;19965;-95
2024/01/29 12:03:58;;;;;;;;;;;11.50;99.90;;;;;;5094741;28;20428;-96
2024/01/29 12:06:23;;;;;;;;;;;11.30;99.90;;;;;;5097241;28;19912;-95
2024/01/29 12:08:49;;;;;;;;;;;11.70;99.90;;;;;;5100394;28;19920;-95
2024/01/29 12:11:15;;;;;;;;;;;11.40;99.90;;;;;;5097563;28;19927;-95
2024/01/29 12:13:41;;;;;;;;;;;11.60;99.90;;;;;;5099645;28;20453;-96
2024/01/29 12:16:07;;;;;;;;;;;11.70;99.90;;;;;;5103576;28;19999;-96
2024/01/29 12:18:33;;;;;;;;;;;12.20;99.90;;;;;;5098731;28;19912;-95
2024/01/29 12:20:59;;;;;;;;;;;12.90;99.90;;;;;;5103075;28;19916;-95
2024/01/29 12:23:24;;;;;;;;;;;12.60;99.90;;;;;;5114263;28;19919;-95
2024/01/29 12:25:50;;;;;;;;;;;13.80;99.90;;;;;;5111075;28;20371;-95
2024/01/29 12:28:16;;;;;;;;;;;14.20;99.90;;;;;;5106388;28;19939;-96
2024/01/29 12:30:42;;;;;;;;;;;13.90;99.90;;;;;;5096217;28;20352;-95
2024/01/29 12:33:07;;;;;;;;;;;14.60;99.90;;;;;;5093034;28;19942;-96
2024/01/29 12:35:34;;;;;;;;;;;14.20;99.90;;;;;;5094631;28;19953;-95
2024/01/29 12:38:03;;;;;;;;;;;15.20;99.90;;;;;;5098244;28;19961;-96
2024/01/29 12:40:28;;;;;;;;;;;15.10;99.90;;;;;;5091570;28;19984;-95
2024/01/29 12:42:58;;;;;;;;;;;14.60;99.90;;;;;;5096427;28;19920;-95
2024/01/29 12:45:24;;;;;;;;;;;13.90;99.90;;;;;;5096690;28;19955;-95
2024/01/29 12:47:50;;;;;;;;;;;14.00;99.90;;;;;;5105915;28;19966;-95
2024/01/29 12:50:17;;;;;;;;;;;13.50;99.90;;;;;;5093684;28;19912;-96
2024/01/29 12:52:43;;;;;;;;;;;13.10;99.90;;;;;;5102229;28;19912;-96
2024/01/29 12:55:08;;;;;;;;;;;13.00;99.90;;;;;;5101408;28;19915;-95
2024/01/29 12:57:34;;;;;;;;;;;13.10;99.90;;;;;;5108055;28;20268;-95
2024/01/29 12:59:59;;;;;;;;;;;12.80;99.90;;;;;;5104183;28;20387;-95
2024/01/29 13:02:24;;;;;;;;;;;12.50;99.90;;;;;;5116171;28;19912;-95
2024/01/29 13:04:50;;;;;;;;;;;12.40;99.90;;;;;;5114721;28;19908;-95
2024/01/29 13:07:15;;;;;;;;;;;11.90;99.90;;;;;;5102771;28;19912;-95
2024/01/29 13:09:41;;;;;;;;;;;11.30;99.90;;;;;;5107096;28;19926;-95
2024/01/29 13:12:07;;;;;;;;;;;11.40;99.90;;;;;;5111424;28;19912;-95
2024/01/29 13:14:32;;;;;;;;;;;11.60;99.90;;;;;;5107002;28;19911;-95
2024/01/29 13:16:58;;;;;;;;;;;11.40;99.90;;;;;;5111567;28;19952;-95
2024/01/29 13:19:23;;;;;;;;;;;11.30;99.90;;;;;;5102241;28;19923;-96
2024/01/29 13:21:49;;;;;;;;;;;11.10;99.90;;;;;;5104740;28;19999;-94
2024/01/29 13:24:14;;;;;;;;;;;11.00;99.90;;;;;;5111348;28;19913;-95
2024/01/29 13:26:43;;;;;;;;;;;11.30;99.90;;;;;;5107202;28;19912;-94
2024/01/29 13:29:08;;;;;;;;;;;11.70;99.90;;;;;;5096062;28;19952;-95
2024/01/29 13:31:34;;;;;;;;;;;11.60;99.90;;;;;;5110682;28;19950;-96
2024/01/29 13:34:00;;;;;;;;;;;11.60;99.90;;;;;;5097206;28;20368;-96
2024/01/29 13:36:26;;;;;;;;;;;11.00;99.90;;;;;;5096842;28;19934;-95
2024/01/29 13:38:52;;;;;;;;;;;10.60;99.90;;;;;;5109267;28;20002;-95
2024/01/29 13:41:17;;;;;;;;;;;10.30;99.90;;;;;;5096140;28;20397;-91
2024/01/29 13:43:43;;;;;;;;;;;10.30;99.90;;;;;;5090905;28;20190;-95
2024/01/29 13:46:08;;;;;;;;;;;10.50;99.90;;;;;;5106350;28;19912;-95
2024/01/29 13:48:33;;;;;;;;;;;10.30;99.90;;;;;;5123925;28;20075;-95
2024/01/29 13:50:59;;;;;;;;;;;10.20;99.90;;;;;;5116655;28;19919;-95
2024/01/29 13:53:24;;;;;;;;;;;10.20;99.90;;;;;;5101184;28;19923;-95
2024/01/29 13:55:50;;;;;;;;;;;10.00;99.90;;;;;;5095204;28;19908;-95
2024/01/29 13:58:15;;;;;;;;;;;10.10;99.90;;;;;;5106438;28;19915;-95
2024/01/29 14:00:41;;;;;;;;;;;9.80;99.90;;;;;;5116491;28;19960;-95
2024/01/29 14:03:06;;;;;;;;;;;9.80;99.90;;;;;;5092221;28;19916;-95
2024/01/29 14:05:32;;;;;;;;;;;9.90;99.90;;;;;;5097551;28;19915;-95
2024/01/29 14:07:57;;;;;;;;;;;9.90;99.90;;;;;;5110738;28;19927;-95
2024/01/29 14:10:23;;;;;;;;;;;9.80;99.90;;;;;;5100137;28;19912;-94
2024/01/29 14:12:48;;;;;;;;;;;9.80;99.90;;;;;;5105678;28;19916;-94